Time;durP1;ratioP1;P1;durP2;ratioP2;P2;SDS_P1;SDS_P2;PMS_P1;PMS_P2;Temp;Humidity;BMP_temperature;BMP_pressure;BME280_temperature;BME280_humidity;BME280_pressure;Samples;Min_cycle;Max_cycle;Signal;HPM_P1;HPM_P2
2022/04/09 00:00:18;;;;;;;3.17;0.70;;;17.80;41.90;;;;;;6019809;29;20053;-74
2022/04/09 00:03:18;;;;;;;4.78;0.75;;;17.90;41.50;;;;;;6011816;29;20094;-74
2022/04/09 00:06:19;;;;;;;5.88;0.90;;;17.90;41.40;;;;;;5989318;29;20045;-74
2022/04/09 00:09:20;;;;;;;9.00;1.42;;;17.90;41.70;;;;;;5999533;29;20045;-74
2022/04/09 00:12:21;;;;;;;5.68;0.70;;;17.80;41.00;;;;;;6000249;29;20044;-74
2022/04/09 00:15:22;;;;;;;3.55;0.65;;;17.80;41.30;;;;;;6003647;29;20042;-74
2022/04/09 00:18:23;;;;;;;3.78;0.90;;;17.70;40.90;;;;;;6018081;29;20044;-74
2022/04/09 00:21:25;;;;;;;2.83;0.95;;;17.70;40.60;;;;;;6003126;29;20045;-75
2022/04/09 00:24:26;;;;;;;11.88;1.42;;;17.70;40.10;;;;;;6020108;29;20130;-74
2022/04/09 00:27:27;;;;;;;4.85;1.10;;;17.60;40.10;;;;;;6019409;29;20038;-75
2022/04/09 00:30:28;;;;;;;2.00;1.00;;;17.60;40.10;;;;;;6017406;29;20077;-74
2022/04/09 00:33:29;;;;;;;2.42;0.70;;;17.60;40.10;;;;;;6000599;29;20165;-74
2022/04/09 00:36:30;;;;;;;6.15;1.02;;;17.50;40.30;;;;;;6002635;29;20072;-74
2022/04/09 00:39:30;;;;;;;7.10;0.80;;;17.50;40.00;;;;;;6007063;29;20038;-75
2022/04/09 00:42:31;;;;;;;3.80;1.45;;;17.40;40.40;;;;;;5989880;29;20045;-73
2022/04/09 00:45:32;;;;;;;9.88;0.80;;;17.30;40.70;;;;;;5992753;29;20041;-75
2022/04/09 00:48:36;;;;;;;8.63;1.27;;;17.30;40.70;;;;;;6008136;29;20033;-74
2022/04/09 00:51:40;;;;;;;2.22;0.70;;;17.30;40.40;;;;;;5993680;29;20048;-76
2022/04/09 00:54:42;;;;;;;2.75;0.82;;;17.20;40.20;;;;;;6008351;29;20136;-75
2022/04/09 00:57:46;;;;;;;4.57;0.90;;;17.10;40.20;;;;;;5996250;29;20041;-74
2022/04/09 01:00:47;;;;;;;2.55;0.70;;;17.00;40.20;;;;;;5990258;29;20133;-74
2022/04/09 01:03:51;;;;;;;6.25;0.70;;;17.00;40.40;;;;;;6009291;29;20042;-74
2022/04/09 01:06:52;;;;;;;16.80;1.50;;;17.00;40.30;;;;;;6005579;29;20037;-74
2022/04/09 01:09:53;;;;;;;3.10;0.77;;;17.00;40.30;;;;;;5996089;29;20472;-74
2022/04/09 01:12:54;;;;;;;3.00;0.55;;;17.00;40.40;;;;;;5998385;29;20057;-73
2022/04/09 01:15:55;;;;;;;3.30;0.75;;;17.00;40.20;;;;;;5999729;29;20468;-74
2022/04/09 01:18:58;;;;;;;3.75;0.85;;;17.00;40.10;;;;;;5995567;29;20049;-74
2022/04/09 01:22:00;;;;;;;7.95;0.68;;;17.00;39.80;;;;;;6000253;29;20333;-74
2022/04/09 01:25:02;;;;;;;2.75;0.68;;;17.00;39.40;;;;;;5976599;29;20091;-73
2022/04/09 01:28:03;;;;;;;1.83;0.55;;;17.00;38.80;;;;;;5998004;29;20116;-73
2022/04/09 01:31:04;;;;;;;2.65;0.52;;;17.00;38.40;;;;;;5998907;29;20034;-74
2022/04/09 01:34:06;;;;;;;2.83;0.63;;;17.00;38.70;;;;;;6001320;29;20031;-74
2022/04/09 01:37:07;;;;;;;1.40;0.65;;;17.00;39.00;;;;;;6000075;29;20065;-74
2022/04/09 01:40:13;;;;;;;4.13;0.55;;;17.00;39.20;;;;;;6001381;29;20106;-74
2022/04/09 01:43:22;;;;;;;3.03;0.60;;;17.00;39.30;;;;;;5985360;29;20039;-74
2022/04/09 01:46:23;;;;;;;1.13;0.22;;;16.90;38.90;;;;;;5985147;29;20463;-74
2022/04/09 01:49:24;;;;;;;3.38;0.55;;;16.90;38.90;;;;;;5998235;29;20166;-73
2022/04/09 01:52:25;;;;;;;1.75;0.40;;;16.80;38.90;;;;;;5995297;29;20530;-73
2022/04/09 01:55:26;;;;;;;4.32;0.40;;;16.80;39.00;;;;;;5999919;29;20041;-74
2022/04/09 01:58:27;;;;;;;2.80;0.22;;;16.80;39.20;;;;;;6000934;29;20091;-74
2022/04/09 02:01:28;;;;;;;2.13;0.77;;;16.70;39.50;;;;;;5981781;29;20468;-74
2022/04/09 02:04:30;;;;;;;3.13;0.45;;;16.70;39.30;;;;;;5996946;29;20046;-73
2022/04/09 02:07:31;;;;;;;0.65;0.25;;;16.60;39.80;;;;;;5982634;29;20049;-74
2022/04/09 02:10:34;;;;;;;3.17;0.45;;;16.40;41.90;;;;;;5981192;29;20065;-74
2022/04/09 02:13:35;;;;;;;1.35;0.25;;;16.10;43.20;;;;;;5985657;29;20098;-74
2022/04/09 02:16:37;;;;;;;1.90;0.20;;;15.80;45.10;;;;;;5999225;29;20469;-74
2022/04/09 02:19:38;;;;;;;1.73;0.40;;;15.40;46.50;;;;;;5997493;29;20372;-74
2022/04/09 02:22:44;;;;;;;1.85;0.20;;;15.00;47.70;;;;;;5995079;29;20053;-74
2022/04/09 02:25:45;;;;;;;0.35;0.10;;;14.70;49.60;;;;;;5996774;29;20491;-75
2022/04/09 02:28:49;;;;;;;0.15;0.15;;;14.30;51.60;;;;;;5984266;29;20038;-75
2022/04/09 02:31:51;;;;;;;0.10;0.10;;;14.00;52.80;;;;;;5994127;29;20130;-74
2022/04/09 02:34:53;;;;;;;0.10;0.10;;;13.70;53.60;;;;;;5984460;29;20130;-74
2022/04/09 02:37:56;;;;;;;10.32;0.30;;;13.40;53.80;;;;;;5980960;29;20121;-74
2022/04/09 02:40:57;;;;;;;1.27;0.28;;;13.20;54.40;;;;;;5997764;29;20048;-74
2022/04/09 02:43:59;;;;;;;0.30;0.20;;;13.10;54.70;;;;;;5996651;29;20038;-74
2022/04/09 02:47:00;;;;;;;0.30;0.30;;;13.00;55.30;;;;;;5997321;29;20040;-74
2022/04/09 02:50:02;;;;;;;3.95;0.10;;;12.90;56.10;;;;;;5997746;29;20484;-74
2022/04/09 02:53:04;;;;;;;0.57;0.10;;;12.80;57.10;;;;;;5997354;29;20034;-74
2022/04/09 02:56:05;;;;;;;0.20;0.20;;;12.60;57.20;;;;;;5999064;29;20089;-75
2022/04/09 02:59:12;;;;;;;0.00;0.00;;;12.50;56.60;;;;;;5998030;29;20038;-74
2022/04/09 03:02:13;;;;;;;0.13;0.13;;;12.40;56.30;;;;;;5997493;29;20041;-74
2022/04/09 03:05:14;;;;;;;0.10;0.10;;;12.20;56.70;;;;;;5996742;29;20113;-74
2022/04/09 03:08:15;;;;;;;1.73;0.30;;;12.00;56.70;;;;;;6001895;29;20054;-74
2022/04/09 03:11:17;;;;;;;0.00;0.00;;;11.90;56.30;;;;;;5985602;29;20170;-74
2022/04/09 03:14:18;;;;;;;0.03;0.03;;;11.80;56.50;;;;;;6020887;29;20029;-74
2022/04/09 03:17:19;;;;;;;0.10;0.10;;;11.70;56.20;;;;;;6017907;29;20460;-74
2022/04/09 03:20:20;;;;;;;0.10;0.10;;;11.70;56.40;;;;;;6020136;29;20140;-74
2022/04/09 03:23:22;;;;;;;0.10;0.10;;;11.70;56.50;;;;;;5988115;29;20046;-74
2022/04/09 03:26:27;;;;;;;0.22;0.20;;;11.70;56.40;;;;;;6002795;29;20041;-74
2022/04/09 03:29:32;;;;;;;0.88;0.10;;;11.60;56.10;;;;;;5998994;29;20033;-74
2022/04/09 03:32:36;;;;;;;0.10;0.10;;;11.60;56.60;;;;;;6002085;29;20045;-74
2022/04/09 03:35:37;;;;;;;0.20;0.10;;;11.60;56.90;;;;;;5992591;29;20101;-74
2022/04/09 03:38:41;;;;;;;5.50;0.10;;;11.60;56.80;;;;;;6004190;29;20050;-74
2022/04/09 03:41:42;;;;;;;0.10;0.10;;;11.60;56.10;;;;;;6020564;29;20052;-74
2022/04/09 03:44:43;;;;;;;0.00;0.00;;;11.60;55.70;;;;;;6003893;29;20345;-74
2022/04/09 03:47:44;;;;;;;0.57;0.20;;;11.60;55.50;;;;;;6005255;29;20121;-73
2022/04/09 03:50:49;;;;;;;0.25;0.20;;;11.70;55.40;;;;;;6019818;29;20041;-74
2022/04/09 03:53:53;;;;;;;0.47;0.17;;;11.80;55.30;;;;;;6004571;29;20072;-74
2022/04/09 03:56:54;;;;;;;0.30;0.30;;;11.70;55.20;;;;;;6006268;29;20351;-74
2022/04/09 04:00:03;;;;;;;0.17;0.17;;;11.80;55.10;;;;;;6003408;29;20379;-74
2022/04/09 04:03:14;;;;;;;0.17;0.10;;;11.70;55.10;;;;;;6002454;29;20044;-74
2022/04/09 04:06:16;;;;;;;0.20;0.20;;;11.80;55.50;;;;;;5985206;29;20042;-73
2022/04/09 04:09:18;;;;;;;0.10;0.10;;;11.70;55.50;;;;;;5994966;29;20042;-73
2022/04/09 04:12:24;;;;;;;0.10;0.10;;;11.70;55.20;;;;;;5994741;29;20045;-73
2022/04/09 04:15:26;;;;;;;0.20;0.20;;;11.60;54.90;;;;;;5994452;29;20046;-73
2022/04/09 04:18:28;;;;;;;0.30;0.10;;;11.50;54.60;;;;;;5997648;29;20068;-73
2022/04/09 04:21:32;;;;;;;0.10;0.10;;;11.50;54.40;;;;;;5995465;29;20248;-73
2022/04/09 04:24:39;;;;;;;0.10;0.10;;;11.60;54.30;;;;;;5997311;29;20048;-74
2022/04/09 04:27:46;;;;;;;0.85;0.10;;;11.40;54.00;;;;;;5996646;29;20046;-74
2022/04/09 04:30:48;;;;;;;0.10;0.10;;;11.40;53.90;;;;;;5996519;29;20042;-74
2022/04/09 04:33:49;;;;;;;0.22;0.20;;;11.30;53.80;;;;;;5997091;29;20383;-74
2022/04/09 04:36:50;;;;;;;0.00;0.00;;;11.20;53.70;;;;;;5997587;29;20050;-74
2022/04/09 04:39:54;;;;;;;0.30;0.30;;;11.20;53.70;;;;;;5992115;29;20418;-74
2022/04/09 04:42:56;;;;;;;0.20;0.20;;;11.20;53.70;;;;;;5996117;29;20049;-74
2022/04/09 04:45:59;;;;;;;0.20;0.20;;;11.10;53.70;;;;;;5990842;29;20039;-74
2022/04/09 04:49:00;;;;;;;0.25;0.20;;;11.10;53.60;;;;;;5995700;29;20082;-74
2022/04/09 04:52:03;;;;;;;0.15;0.15;;;11.10;53.30;;;;;;5996729;29;20065;-73
2022/04/09 04:55:09;;;;;;;0.20;0.20;;;11.10;53.10;;;;;;5997762;29;20034;-73
2022/04/09 04:58:09;;;;;;;0.65;0.20;;;11.10;53.20;;;;;;5993374;29;20039;-74
2022/04/09 05:01:17;;;;;;;0.10;0.10;;;11.00;53.10;;;;;;5996674;29;20042;-73
2022/04/09 05:04:27;;;;;;;0.20;0.20;;;11.00;53.00;;;;;;5990607;29;20046;-74
2022/04/09 05:07:42;;;;;;;0.20;0.20;;;11.00;53.10;;;;;;5977562;29;20038;-74
2022/04/09 05:10:44;;;;;;;0.10;0.10;;;10.90;53.20;;;;;;5977072;29;20054;-74
2022/04/09 05:13:46;;;;;;;0.17;0.17;;;10.80;53.30;;;;;;5992275;29;20133;-73
2022/04/09 05:16:48;;;;;;;0.40;0.40;;;10.80;53.30;;;;;;5992946;29;20038;-73
2022/04/09 05:19:50;;;;;;;0.30;0.20;;;10.80;53.30;;;;;;5994871;29;20046;-73
2022/04/09 05:22:51;;;;;;;0.52;0.38;;;10.70;53.10;;;;;;5992674;29;20084;-74
2022/04/09 05:25:53;;;;;;;0.20;0.20;;;10.60;53.10;;;;;;5993931;29;20043;-74
2022/04/09 05:28:54;;;;;;;0.10;0.10;;;10.60;53.20;;;;;;5997255;29;20578;-73
2022/04/09 05:31:59;;;;;;;0.52;0.20;;;10.50;53.40;;;;;;5978681;29;20033;-74
2022/04/09 05:35:01;;;;;;;2.58;0.17;;;10.50;53.60;;;;;;5999733;29;20055;-75
2022/04/09 05:38:03;;;;;;;0.75;0.40;;;10.50;53.70;;;;;;5995124;29;20553;-73
2022/04/09 05:41:07;;;;;;;0.40;0.40;;;10.50;53.70;;;;;;6008209;29;20038;-75
2022/04/09 05:44:08;;;;;;;0.20;0.20;;;10.50;53.90;;;;;;5987426;29;20118;-74
2022/04/09 05:47:10;;;;;;;0.28;0.20;;;10.40;54.00;;;;;;5978328;29;20475;-74
2022/04/09 05:50:12;;;;;;;0.32;0.32;;;10.40;54.00;;;;;;5989921;29;20039;-74
2022/04/09 05:53:13;;;;;;;0.38;0.38;;;10.40;54.20;;;;;;5973218;29;20070;-74
2022/04/09 05:56:14;;;;;;;0.35;0.20;;;10.40;54.30;;;;;;5987391;29;20114;-73
2022/04/09 05:59:17;;;;;;;0.25;0.25;;;10.40;54.30;;;;;;5989466;29;20484;-74
2022/04/09 06:02:18;;;;;;;0.20;0.20;;;10.40;54.10;;;;;;5990861;29;20043;-72
2022/04/09 06:05:20;;;;;;;0.30;0.22;;;10.40;53.70;;;;;;5989843;29;20145;-73
2022/04/09 06:08:23;;;;;;;0.10;0.10;;;10.40;53.50;;;;;;5973909;29;20054;-74
2022/04/09 06:11:25;;;;;;;0.13;0.13;;;10.40;53.70;;;;;;5968896;29;20042;-73
2022/04/09 06:14:32;;;;;;;0.10;0.10;;;10.40;53.80;;;;;;5983502;29;20083;-73
2022/04/09 06:17:39;;;;;;;0.40;0.30;;;10.40;53.80;;;;;;5985879;29;20034;-72
2022/04/09 06:20:41;;;;;;;0.55;0.17;;;10.40;53.80;;;;;;5989756;29;20453;-73
2022/04/09 06:23:46;;;;;;;0.13;0.10;;;10.40;54.00;;;;;;5990076;29;20102;-73
2022/04/09 06:26:47;;;;;;;0.10;0.10;;;10.40;54.20;;;;;;5984932;29;20038;-73
2022/04/09 06:29:49;;;;;;;0.35;0.30;;;10.40;54.40;;;;;;5978981;29;20050;-75
2022/04/09 06:32:50;;;;;;;0.10;0.10;;;10.40;54.30;;;;;;5985380;29;20080;-75
2022/04/09 06:35:51;;;;;;;0.10;0.10;;;10.30;54.40;;;;;;5970428;29;20054;-75
2022/04/09 06:38:55;;;;;;;0.47;0.20;;;10.30;54.80;;;;;;5972154;29;20476;-77
2022/04/09 06:42:05;;;;;;;0.40;0.28;;;10.40;54.80;;;;;;5988141;29;20042;-73
2022/04/09 06:45:26;;;;;;;0.32;0.20;;;10.40;54.70;;;;;;5995968;29;20037;-73
2022/04/09 06:48:47;;;;;;;0.10;0.10;;;10.50;54.30;;;;;;6001752;29;20106;-74
2022/04/09 06:52:06;;;;;;;0.40;0.15;;;10.60;54.00;;;;;;5989007;29;20038;-74
2022/04/09 06:55:36;;;;;;;0.10;0.10;;;10.60;53.90;;;;;;5984314;29;20037;-74
2022/04/09 06:58:37;;;;;;;0.20;0.20;;;10.60;53.80;;;;;;5963545;29;20034;-74
2022/04/09 07:01:38;;;;;;;0.52;0.30;;;10.60;53.90;;;;;;6000532;29;20053;-73
2022/04/09 07:04:58;;;;;;;0.43;0.28;;;10.50;53.80;;;;;;5995339;29;20038;-74
2022/04/09 07:08:01;;;;;;;2.25;0.40;;;10.50;53.90;;;;;;5980047;29;20037;-74
2022/04/09 07:11:02;;;;;;;0.35;0.30;;;10.50;54.10;;;;;;5998033;29;20108;-73
2022/04/09 07:14:03;;;;;;;0.22;0.22;;;10.60;54.10;;;;;;6011200;29;20038;-73
2022/04/09 07:17:05;;;;;;;1.63;0.30;;;10.70;54.00;;;;;;5996839;29;20042;-75
2022/04/09 07:20:07;;;;;;;0.30;0.30;;;10.80;53.80;;;;;;5982477;29;20046;-73
2022/04/09 07:23:08;;;;;;;5.93;0.40;;;10.90;53.60;;;;;;6009344;29;20046;-74
2022/04/09 07:26:09;;;;;;;0.43;0.40;;;11.00;53.40;;;;;;6012364;29;20167;-74
2022/04/09 07:29:11;;;;;;;1.90;0.38;;;11.00;53.40;;;;;;6011740;29;20045;-72
2022/04/09 07:32:11;;;;;;;0.95;0.40;;;11.10;53.10;;;;;;6008498;29;20064;-73
2022/04/09 07:35:14;;;;;;;0.65;0.30;;;11.20;52.90;;;;;;5996746;29;20042;-73
2022/04/09 07:38:15;;;;;;;0.32;0.22;;;11.10;52.70;;;;;;6008867;29;20033;-72
2022/04/09 07:41:16;;;;;;;0.32;0.30;;;11.10;52.70;;;;;;5980133;29;20057;-73
2022/04/09 07:44:17;;;;;;;0.68;0.20;;;11.00;52.70;;;;;;6001978;29;20426;-74
2022/04/09 07:47:18;;;;;;;0.35;0.35;;;11.00;52.70;;;;;;6006262;29;20420;-73
2022/04/09 07:50:20;;;;;;;0.52;0.40;;;11.00;52.70;;;;;;5975675;29;20068;-73
2022/04/09 07:53:20;;;;;;;0.38;0.38;;;11.00;52.40;;;;;;5992885;29;20052;-72
2022/04/09 07:56:22;;;;;;;0.30;0.30;;;11.00;52.30;;;;;;5981026;29;20042;-72
2022/04/09 07:59:23;;;;;;;0.70;0.30;;;11.00;52.40;;;;;;5985185;29;20046;-72
2022/04/09 08:02:25;;;;;;;3.03;0.55;;;10.90;52.40;;;;;;6008991;29;20060;-73
2022/04/09 08:05:26;;;;;;;0.52;0.30;;;10.80;52.60;;;;;;6014085;29;20030;-72
2022/04/09 08:08:27;;;;;;;0.50;0.30;;;10.80;53.00;;;;;;6010360;29;20042;-73
2022/04/09 08:11:28;;;;;;;0.30;0.30;;;10.70;53.50;;;;;;5990816;29;20038;-72
2022/04/09 08:14:32;;;;;;;0.60;0.50;;;10.60;53.70;;;;;;5991208;29;20541;-72
2022/04/09 08:17:33;;;;;;;0.63;0.47;;;10.60;54.00;;;;;;5993674;29;20046;-72
2022/04/09 08:20:34;;;;;;;0.90;0.30;;;10.60;54.20;;;;;;5989434;29;20064;-73
2022/04/09 08:23:34;;;;;;;0.93;0.68;;;10.70;54.30;;;;;;5989994;29;20056;-74
2022/04/09 08:26:35;;;;;;;0.85;0.55;;;10.80;54.20;;;;;;5981902;29;20042;-74
2022/04/09 08:29:36;;;;;;;0.50;0.43;;;10.80;54.60;;;;;;5978211;29;20042;-73
2022/04/09 08:32:38;;;;;;;0.45;0.40;;;10.90;53.90;;;;;;5981195;29;20038;-73
2022/04/09 08:35:39;;;;;;;0.63;0.52;;;10.90;53.60;;;;;;5970556;29;20040;-73
2022/04/09 08:38:40;;;;;;;1.13;0.60;;;10.90;53.50;;;;;;5978814;29;20137;-73
2022/04/09 08:41:44;;;;;;;1.02;0.50;;;10.90;53.50;;;;;;5967529;29;20050;-73
2022/04/09 08:44:45;;;;;;;0.85;0.52;;;10.90;53.50;;;;;;5978532;29;20045;-73
2022/04/09 08:47:47;;;;;;;0.60;0.47;;;11.00;53.50;;;;;;5968087;29;20117;-73
2022/04/09 08:50:48;;;;;;;0.52;0.43;;;11.00;54.10;;;;;;5993356;29;20468;-73
2022/04/09 08:53:50;;;;;;;0.60;0.55;;;11.10;53.50;;;;;;5964701;29;20111;-73
2022/04/09 08:56:51;;;;;;;0.73;0.50;;;11.20;53.40;;;;;;5980964;29;20137;-73
2022/04/09 08:59:54;;;;;;;3.25;0.75;;;11.40;53.10;;;;;;5965387;29;20076;-72
2022/04/09 09:02:56;;;;;;;0.95;0.73;;;11.50;52.80;;;;;;5998259;29;20472;-74
2022/04/09 09:05:57;;;;;;;5.05;2.00;;;11.60;52.50;;;;;;5990911;29;20547;-72
2022/04/09 09:09:05;;;;;;;1.25;0.90;;;11.60;52.40;;;;;;5983869;29;20058;-72
2022/04/09 09:12:07;;;;;;;0.45;0.35;;;11.70;52.30;;;;;;6017278;29;20041;-71
2022/04/09 09:15:08;;;;;;;1.75;0.93;;;11.60;52.20;;;;;;5996012;29;20034;-72
2022/04/09 09:18:28;;;;;;;0.90;0.73;;;11.50;52.40;;;;;;6020053;29;20038;-72
2022/04/09 09:21:29;;;;;;;2.85;0.80;;;11.40;53.00;;;;;;6004634;29;20085;-72
2022/04/09 09:24:31;;;;;;;0.57;0.50;;;11.40;53.20;;;;;;6015463;29;20045;-73
2022/04/09 09:27:31;;;;;;;0.73;0.50;;;11.40;53.10;;;;;;5990302;29;20045;-75
2022/04/09 09:30:54;;;;;;;0.43;0.43;;;11.40;53.00;;;;;;6007795;29;20141;-73
2022/04/09 09:34:10;;;;;;;1.15;0.55;;;11.60;53.10;;;;;;6018226;29;20149;-73
2022/04/09 09:37:21;;;;;;;1.17;0.80;;;11.70;52.70;;;;;;6001194;29;20045;-74
2022/04/09 09:40:32;;;;;;;0.57;0.57;;;11.80;53.10;;;;;;6010547;29;20049;-73
2022/04/09 09:43:33;;;;;;;1.95;0.57;;;11.90;52.30;;;;;;6019068;29;20468;-74
2022/04/09 09:46:35;;;;;;;1.15;0.70;;;11.90;52.00;;;;;;6002739;29;20094;-72
2022/04/09 09:49:37;;;;;;;0.70;0.57;;;11.80;52.40;;;;;;6016464;29;20185;-74
2022/04/09 09:52:39;;;;;;;1.05;0.88;;;11.80;51.90;;;;;;6002338;29;20121;-73
2022/04/09 09:55:44;;;;;;;1.17;0.68;;;11.80;51.80;;;;;;6002065;29;20101;-73
2022/04/09 09:58:45;;;;;;;1.45;1.00;;;11.70;52.10;;;;;;5998963;29;20041;-73
2022/04/09 10:01:47;;;;;;;0.90;0.60;;;11.50;52.60;;;;;;6003315;29;20475;-73
2022/04/09 10:04:48;;;;;;;0.98;0.80;;;11.40;53.40;;;;;;6019611;29;20045;-74
2022/04/09 10:07:50;;;;;;;1.35;1.13;;;11.30;53.70;;;;;;6001296;29;20384;-72
2022/04/09 10:10:57;;;;;;;0.75;0.52;;;11.30;53.90;;;;;;5997143;29;20073;-72
2022/04/09 10:14:01;;;;;;;2.40;0.98;;;11.30;53.40;;;;;;6015384;29;20452;-72
2022/04/09 10:17:06;;;;;;;1.65;0.90;;;11.30;52.90;;;;;;6013972;29;20057;-74
2022/04/09 10:20:08;;;;;;;1.73;0.90;;;11.40;52.70;;;;;;6010586;29;20166;-72
2022/04/09 10:23:10;;;;;;;0.95;0.70;;;11.60;52.60;;;;;;6001691;29;20471;-73
2022/04/09 10:26:11;;;;;;;0.65;0.65;;;11.70;52.40;;;;;;6009743;29;20038;-73
2022/04/09 10:29:13;;;;;;;8.48;1.00;;;11.80;52.20;;;;;;6017542;29;20116;-73
2022/04/09 10:32:56;;;;;;;1.90;0.70;;;12.10;51.80;;;;;;5998014;29;20156;-74
2022/04/09 10:36:03;;;;;;;1.52;1.10;;;12.30;50.80;;;;;;5998969;29;20104;-72
2022/04/09 10:39:22;;;;;;;0.75;0.50;;;12.60;50.30;;;;;;6016814;29;20034;-72
2022/04/09 10:42:56;;;;;;;1.15;0.90;;;12.90;49.20;;;;;;6000355;29;20232;-72
2022/04/09 10:46:05;;;;;;;2.60;1.08;;;13.00;49.00;;;;;;5882303;30;20467;-74
2022/04/09 10:49:15;;;;;;;;;;;13.00;49.50;;;;;;5890063;30;20029;-73
2022/04/09 10:52:23;;;;;;;0.93;0.77;;;13.00;49.60;;;;;;5881422;30;19925;-73
2022/04/09 10:55:25;;;;;;;0.70;0.70;;;13.20;49.30;;;;;;5887349;30;20040;-73
2022/04/09 10:58:27;;;;;;;1.48;0.90;;;13.30;48.80;;;;;;5889297;30;20032;-72
2022/04/09 11:01:46;;;;;;;1.27;0.70;;;13.40;48.70;;;;;;5885681;30;20106;-72
2022/04/09 11:04:47;;;;;;;1.75;0.70;;;13.50;48.30;;;;;;5888680;30;20135;-73
2022/04/09 11:08:08;;;;;;;1.50;0.75;;;13.40;48.50;;;;;;5887252;30;20551;-74
2022/04/09 11:11:09;;;;;;;0.55;0.55;;;13.20;49.30;;;;;;5869045;30;20056;-73
2022/04/09 11:14:10;;;;;;;1.58;1.15;;;13.20;49.70;;;;;;5887192;30;20139;-72
2022/04/09 11:17:22;;;;;;;1.30;1.08;;;13.20;49.50;;;;;;5888443;30;20146;-73
2022/04/09 11:20:29;;;;;;;4.00;1.08;;;13.40;49.10;;;;;;5913230;29;20444;-73
2022/04/09 11:23:30;;;;;;;5.78;1.10;;;13.70;48.50;;;;;;6010924;29;20068;-71
2022/04/09 11:26:31;;;;;;;2.45;1.05;;;14.00;47.70;;;;;;6012711;29;20037;-72
2022/04/09 11:29:41;;;;;;;0.82;0.82;;;14.30;46.90;;;;;;5999613;29;20101;-72
2022/04/09 11:32:41;;;;;;;1.45;0.93;;;14.40;46.00;;;;;;5979460;29;20070;-71
2022/04/09 11:35:43;;;;;;;1.73;1.10;;;14.50;45.70;;;;;;6002206;29;20096;-72
2022/04/09 11:38:44;;;;;;;3.65;1.20;;;14.60;45.30;;;;;;6000797;29;20041;-72
2022/04/09 11:41:47;;;;;;;1.10;1.00;;;14.70;45.50;;;;;;6015927;29;20564;-71
2022/04/09 11:44:48;;;;;;;3.47;1.10;;;15.10;44.80;;;;;;6000807;29;20461;-71
2022/04/09 11:47:50;;;;;;;1.50;0.90;;;15.20;43.70;;;;;;6016898;29;20056;-71
2022/04/09 11:50:53;;;;;;;2.15;1.10;;;15.00;43.90;;;;;;6000278;29;20467;-72
2022/04/09 11:54:16;;;;;;;1.15;0.90;;;14.90;44.20;;;;;;6002389;29;20030;-71
2022/04/09 11:57:17;;;;;;;0.60;0.60;;;14.90;44.20;;;;;;5993876;29;20034;-71
2022/04/09 12:00:23;;;;;;;0.68;0.50;;;14.90;44.10;;;;;;6000092;29;20097;-72
2022/04/09 12:03:26;;;;;;;0.95;0.65;;;15.10;44.40;;;;;;5984700;29;20448;-72
2022/04/09 12:06:27;;;;;;;0.40;0.32;;;15.50;44.00;;;;;;5998539;29;20037;-71
2022/04/09 12:09:30;;;;;;;0.50;0.50;;;16.00;43.10;;;;;;6015318;29;20625;-71
2022/04/09 12:12:38;;;;;;;0.63;0.40;;;16.30;42.20;;;;;;6015533;29;20057;-72
2022/04/09 12:15:39;;;;;;;1.17;0.50;;;16.40;41.60;;;;;;6017330;29;20120;-73
2022/04/09 12:18:41;;;;;;;0.77;0.70;;;16.50;41.60;;;;;;6000585;29;20117;-73
2022/04/09 12:21:42;;;;;;;0.32;0.32;;;16.50;41.50;;;;;;5997376;29;20057;-72
2022/04/09 12:24:47;;;;;;;1.85;0.77;;;16.30;41.50;;;;;;5984376;29;20487;-73
2022/04/09 12:27:48;;;;;;;0.52;0.43;;;16.10;41.60;;;;;;6006223;29;20060;-72
2022/04/09 12:30:51;;;;;;;2.40;0.75;;;15.90;41.40;;;;;;6005471;29;20121;-73
2022/04/09 12:34:00;;;;;;;1.48;0.77;;;15.60;41.40;;;;;;6011961;29;20053;-72
2022/04/09 12:37:04;;;;;;;1.20;0.52;;;15.30;42.00;;;;;;5995268;29;20042;-72
2022/04/09 12:40:18;;;;;;;1.75;0.93;;;15.00;42.60;;;;;;5989687;29;20052;-74
2022/04/09 12:43:39;;;;;;;3.05;0.77;;;14.70;43.00;;;;;;6002478;29;20071;-72
2022/04/09 12:46:48;;;;;;;3.13;1.20;;;14.40;43.50;;;;;;5994871;29;20091;-72
2022/04/09 12:49:49;;;;;;;0.82;0.50;;;14.20;43.70;;;;;;5995317;29;20041;-72
2022/04/09 12:52:52;;;;;;;0.30;0.30;;;14.20;44.00;;;;;;6011773;29;20228;-72
2022/04/09 12:55:53;;;;;;;4.60;0.70;;;14.30;44.10;;;;;;5999315;29;20046;-72
2022/04/09 12:58:54;;;;;;;0.98;0.47;;;14.50;43.80;;;;;;5996298;29;20611;-71
2022/04/09 13:01:55;;;;;;;0.70;0.52;;;14.80;43.60;;;;;;6014666;29;20041;-74
2022/04/09 13:04:57;;;;;;;0.30;0.30;;;16.00;42.40;;;;;;6011033;29;20053;-73
2022/04/09 13:07:58;;;;;;;2.92;1.10;;;17.70;39.80;;;;;;6012631;29;20472;-72
2022/04/09 13:10:59;;;;;;;2.83;0.95;;;19.20;37.10;;;;;;6013115;29;20042;-78
2022/04/09 13:14:00;;;;;;;2.10;0.55;;;20.10;35.50;;;;;;6011684;29;20447;-72
2022/04/09 13:17:01;;;;;;;0.50;0.40;;;21.20;33.40;;;;;;6000643;29;20138;-72
2022/04/09 13:20:05;;;;;;;1.65;0.70;;;21.70;32.30;;;;;;5995708;29;20117;-73
2022/04/09 13:23:07;;;;;;;3.13;0.50;;;21.50;32.20;;;;;;5995277;29;20038;-72
2022/04/09 13:26:08;;;;;;;0.95;0.68;;;20.80;33.10;;;;;;5997189;29;20449;-73
2022/04/09 13:29:09;;;;;;;1.63;0.80;;;20.00;34.30;;;;;;6013797;29;20034;-72
2022/04/09 13:32:10;;;;;;;1.60;0.60;;;19.60;35.40;;;;;;6014092;29;20109;-77
2022/04/09 13:35:11;;;;;;;1.67;0.90;;;20.40;34.10;;;;;;6013464;29;20038;-70
2022/04/09 13:38:14;;;;;;;0.85;0.70;;;20.10;33.50;;;;;;5997872;29;20035;-71
2022/04/09 13:41:18;;;;;;;0.50;0.47;;;19.40;34.20;;;;;;5997410;29;20052;-71
2022/04/09 13:44:19;;;;;;;3.40;0.50;;;18.60;34.90;;;;;;5983188;29;20041;-71
2022/04/09 13:47:20;;;;;;;0.65;0.45;;;17.90;35.70;;;;;;6015550;29;20129;-72
2022/04/09 13:50:22;;;;;;;0.88;0.70;;;17.20;36.30;;;;;;6004912;29;20065;-72
2022/04/09 13:53:23;;;;;;;0.93;0.50;;;16.70;37.10;;;;;;6001565;29;20145;-71
2022/04/09 13:56:24;;;;;;;0.63;0.50;;;17.10;37.00;;;;;;5987187;29;20141;-71
2022/04/09 13:59:25;;;;;;;1.13;0.60;;;18.60;35.50;;;;;;6002281;29;20093;-72
2022/04/09 14:02:26;;;;;;;5.05;1.23;;;20.10;33.40;;;;;;6018459;29;20041;-73
2022/04/09 14:05:27;;;;;;;0.80;0.60;;;21.10;31.70;;;;;;6004086;29;20048;-71
2022/04/09 14:08:28;;;;;;;0.70;0.50;;;21.10;31.30;;;;;;6018564;29;20049;-72
2022/04/09 14:11:29;;;;;;;0.65;0.43;;;20.70;31.60;;;;;;5999935;29;20097;-72
2022/04/09 14:14:30;;;;;;;3.95;0.50;;;20.30;31.20;;;;;;6002579;29;20138;-72
2022/04/09 14:17:32;;;;;;;1.98;0.70;;;19.40;31.50;;;;;;6002509;29;20182;-73
2022/04/09 14:20:34;;;;;;;0.50;0.50;;;18.60;32.90;;;;;;5986456;29;20541;-71
2022/04/09 14:23:35;;;;;;;0.75;0.38;;;18.10;34.20;;;;;;6019745;29;20046;-71
2022/04/09 14:26:36;;;;;;;0.80;0.40;;;17.60;34.90;;;;;;6015573;29;20045;-72
2022/04/09 14:29:37;;;;;;;1.98;0.60;;;17.30;35.70;;;;;;6005808;29;20053;-72
2022/04/09 14:32:40;;;;;;;2.38;1.20;;;16.90;36.30;;;;;;6014373;29;20053;-72
2022/04/09 14:35:41;;;;;;;0.60;0.40;;;16.60;37.10;;;;;;6016447;29;20125;-72
2022/04/09 14:38:41;;;;;;;0.70;0.57;;;16.20;37.70;;;;;;6003443;29;20047;-72
2022/04/09 14:41:43;;;;;;;1.38;0.52;;;15.90;38.70;;;;;;6019270;29;20069;-72
2022/04/09 14:44:43;;;;;;;0.43;0.43;;;15.40;39.50;;;;;;6017395;29;20375;-71
2022/04/09 14:47:44;;;;;;;1.92;0.55;;;15.10;40.50;;;;;;6019271;29;20057;-72
2022/04/09 14:50:45;;;;;;;1.05;0.63;;;14.70;41.20;;;;;;6015698;29;20241;-72
2022/04/09 14:53:46;;;;;;;1.90;0.70;;;14.40;42.10;;;;;;5996974;29;20120;-72
2022/04/09 14:56:50;;;;;;;0.75;0.65;;;14.10;42.70;;;;;;6000782;29;20058;-72
2022/04/09 14:59:52;;;;;;;0.82;0.70;;;14.00;43.20;;;;;;5985375;29;20480;-72
2022/04/09 15:02:53;;;;;;;1.38;0.43;;;13.80;43.50;;;;;;6002575;29;20413;-72
2022/04/09 15:05:54;;;;;;;1.58;0.70;;;13.60;43.50;;;;;;6000319;29;20048;-72
2022/04/09 15:08:55;;;;;;;1.48;0.40;;;13.50;44.00;;;;;;5996372;29;20152;-72
2022/04/09 15:11:57;;;;;;;2.53;0.55;;;13.30;44.80;;;;;;6011413;29;20082;-72
2022/04/09 15:14:58;;;;;;;2.00;0.63;;;13.20;45.30;;;;;;6014762;29;20042;-72
2022/04/09 15:17:59;;;;;;;3.25;0.63;;;13.10;45.70;;;;;;6001540;29;20037;-74
2022/04/09 15:21:00;;;;;;;1.80;0.73;;;13.10;46.10;;;;;;6015589;29;20607;-73
2022/04/09 15:24:02;;;;;;;2.53;0.93;;;13.20;46.20;;;;;;5974820;29;20057;-76
2022/04/09 15:27:03;;;;;;;1.98;0.68;;;13.30;46.10;;;;;;5981944;29;20417;-73
2022/04/09 15:30:06;;;;;;;1.13;0.63;;;13.50;46.00;;;;;;5989111;29;20037;-74
2022/04/09 15:33:07;;;;;;;0.60;0.43;;;13.50;45.70;;;;;;5985859;29;20051;-74
2022/04/09 15:36:08;;;;;;;1.38;0.70;;;13.70;45.50;;;;;;6005865;29;20038;-71
2022/04/09 15:39:09;;;;;;;0.65;0.32;;;13.80;45.50;;;;;;5989599;29;20037;-74
2022/04/09 15:42:12;;;;;;;6.70;0.50;;;14.00;45.20;;;;;;6006848;29;20034;-73
2022/04/09 15:45:14;;;;;;;1.88;0.80;;;14.20;44.60;;;;;;6010842;29;20049;-74
2022/04/09 15:48:15;;;;;;;6.43;0.68;;;14.30;44.00;;;;;;5968334;29;20094;-71
2022/04/09 15:51:16;;;;;;;0.50;0.50;;;14.50;43.70;;;;;;6011521;29;20124;-73
2022/04/09 15:54:18;;;;;;;1.90;0.50;;;14.70;43.50;;;;;;5999335;29;20041;-73